Tiempo atmosférico en la estación meteorológica de A Coruña Aeropuerto, A Coruña (98 m.)



Fecha
DESCASC
Temp. máxima en grados centígrados (hora)
DESCASC
Temp. mínima en grados centígrados (hora)
DESCASC
Temp. media en grados centígrados
DESCASC
Racha de viento máxima en m/sg (hora)
DESCASC
Velocidad máxima media en intervalos de 10 minutos(hora)
DESCASC
Precipitaciones diarias en mm
DESCASC
Precipitaciones de 00:00 a 06:00 en mm
DESCASC
Precipitaciones de 06:00 a 12:00 en mm
DESCASC
Precipitaciones de 12:00 a 18:00 en mm
DESCASC
Precipitaciones de 18:00 a 24:00 en mm
DESCASC
20-09-2018 26.5 (15:30) 11.9 (08:20) 19.2 8.33 (22:40) 5.28 (23:00) 0 0 0 0 0
19-09-2018 24 (12:40) 11.9 (07:10) 17.9 8.33 (16:10) 4.17 (16:10) 0 0 0 0 0
18-09-2018 23.8 (16:20) 15.9 (23:59) 19.8 7.22 (11:30) 5 (14:40) 0 0 0 0 0
17-09-2018 29.1 (14:50) 11.5 (05:00) 20.3 10.83 (18:10) 6.67 (13:50) 0 0 0 0 0
16-09-2018 21.7 (14:30) 15 (00:00) 18.4 6.67 (10:10) 3.89 (16:10) 0 0 0 0 0
15-09-2018 24.9 (17:30) 12.3 (00:00) 18.6 6.67 (18:20) 5 (18:40) 0 0 0 0 0
14-09-2018 22.5 (15:20) 16.5 (00:00) 19.5 10.28 (16:00) 6.67 (16:00) 0 0 0 0 0
13-09-2018 22.5 (13:40) 14.8 (00:00) 18.7 -- (--) -- (--) 0 0 0 0 0
12-09-2018 22.3 (16:40) 14.6 (00:00) 18.4 9.17 (17:30) 5.28 (17:30) 0 0 0 0 0
11-09-2018 24.9 (17:20) 12.2 (00:00) 18.5 5.83 (14:00) 4.17 (16:50) 0 0 0 0 0
10-09-2018 24.4 (19:20) 13 (00:00) 18.7 7.78 (17:10) 4.72 (17:10) 0 0 0 0 0
09-09-2018 23.6 (13:00) 13 (00:00) 18.3 9.17 (15:30) 5.28 (18:20) 0 0 0 0 0
08-09-2018 27.7 (14:40) 12.5 (00:00) 20.1 8.89 (23:20) 5 (16:10) 0 0 0 0 0
07-09-2018 25.9 (15:00) 12.9 (00:00) 19.4 8.89 (14:10) 4.72 (16:50) 0 0 0 0 0
06-09-2018 22.1 (17:20) 16.6 (00:00) 19.4 11.67 (15:20) 8.06 (16:10) 0.5 0 0.5 0 0
05-09-2018 21.3 (12:10) 16.6 (00:00) 18.9 11.39 (12:50) 6.67 (12:50) 0 0 0 0 0
04-09-2018 21.4 (12:10) 17.5 (00:00) 19.4 8.33 (12:20) 5.28 (12:20) 0 0 0 0 0
03-09-2018 28.5 (15:00) 16.8 (00:00) 22.6 11.39 (15:30) 7.78 (15:30) 0.3 0.3 0 0 0
02-09-2018 34.1 (14:40) 16.7 (00:00) 25.4 7.78 (09:40) 3.89 (15:20) 0 0 0 0 0
01-09-2018 30.1 (17:20) 13.9 (00:00) 22 6.11 (16:10) 3.89 (16:10) 0 0 0 0 0
31-08-2018 25.1 (18:20) 12.5 (00:00) 18.8 9.72 (16:10) 6.11 (16:10) 0 0 0 0 0
30-08-2018 21.6 (16:10) 12 (00:00) 16.8 11.67 (18:00) 6.94 (16:50) 0 0 0 0 0
29-08-2018 21.1 (15:20) 14.3 (00:00) 17.7 9.17 (17:30) 6.11 (18:00) 0 0 0 0 0
28-08-2018 28.9 (14:40) 17 (00:00) 22.9 10.83 (22:00) 6.67 (14:30) 3.3 1.2 0.5 0 1.6
27-08-2018 25 (17:00) 17.9 (00:00) 21.4 8.33 (15:20) 5 (15:40) 0 0 0 0 0
26-08-2018 23.3 (13:10) 11.7 (00:00) 17.5 7.78 (14:40) 5 (14:40) 0 0 0 0 0
25-08-2018 21.3 (15:30) 11.7 (00:00) 16.5 9.17 (16:20) 5.83 (17:50) 0 0 0 0 0

Gráficas

Temp. máximas Temp. mínimas Temp. medias Precipitaciones Rachas de viento máximas Velocidades máximas media en intervalos de 10 minutos

Datos horarios

Fecha y hora oficial Temperatura (ºC) Velocidad del viento (km/h) Dirección del viento Racha (km/h) Dirección de racha Precipitación (mm) Presión (hPa) Tendencia (hPa) Humedad (%)
2018-09-23 23:00:00 17.6 9 Norte 18 Norte 0 1015.8 1 99
2018-09-23 22:00:00 17.9 10 Norte 22 Norte 0 1015.5 1.1 99
2018-09-23 21:00:00 18.6 11 Norte 24 Noroeste 0 1015.1 1 98
2018-09-23 20:00:00 19.2 9 Norte 15 Norte 0 1014.8 0.7 97
2018-09-23 19:00:00 20.1 7 Norte 15 Norte 0 1014.4 0.1 93
2018-09-23 18:00:00 20.6 9 Norte 18 Norte 0 1014.1 -0.2 89
2018-09-23 17:00:00 22.1 10 Nordeste 18 Norte 0 1014.1 -0.1 82
2018-09-23 16:00:00 21.9 9 Norte 17 Norte 0 1014.3 0 81
2018-09-23 15:00:00 21.6 5 Noroeste 22 Norte 0 1014.3 0.1 81
2018-09-23 14:00:00 21.9 2 Norte 18 Este 0 1014.2 0.5 79
2018-09-23 13:00:00 21 4 Nordeste 9 Este 0 1014.3 1.3 81
2018-09-23 12:00:00 20 3 Este 22 Sudeste 0 1014.2 1.4 84
2018-09-23 11:00:00 18.7 8 Sudeste 17 Sur 0 1013.7 1.4 90
2018-09-23 10:00:00 17.5 9 Sur 22 Sur 0 1013 0.8 95
2018-09-23 09:00:00 17.2 6 Sur 9 Sur 0 1012.8 0.7 96
2018-09-23 08:00:00 17.1 5 Sur 9 Sur 0 1012.3 0.3 95
2018-09-23 07:00:00 17.3 8 Sur 21 Sur 0 1012.2 -0.2 94
2018-09-23 06:00:00 17.5 0 Calma 8 Sur 0 1012.1 -0.6 94
2018-09-23 05:00:00 17.6 6 Sur 9 Sur 0 1012 -1 94
2018-09-23 04:00:00 17.5 5 Sur 11 Sur 0 1012.4 -0.8 94
2018-09-23 03:00:00 17.5 6 Sur 9 Sur 0 1012.7 -0.4 95
2018-09-23 02:00:00 17.6 5 Sudeste 9 Sur 0 1013 -0.1 94
2018-09-23 01:00:00 17.5 5 Sur 9 Sur 0 1013.2 0.5 94
2018-09-23 00:00:00 17.6 7 Sur 13 Sudeste 0 1013.1 0.7 93
2018-09-22 23:00:00 17.9 3 Sur 18 Sudeste 0 1013.1 1 92
2018-09-22 22:00:00 18.7 5 Sur 8 Sur 0 1012.7 0.9 89
2018-09-22 21:00:00 19.8 4 Noroeste 13 Norte 0 1012.4 0.8 84
2018-09-22 20:00:00 21.6 6 Noroeste 15 Norte 0 1012.1 0.2 76
2018-09-22 19:00:00 21.3 9 Norte 24 Norte 0 1011.8 0 78
2018-09-22 18:00:00 23.1 9 Norte 18 Noroeste 0 1011.6 -0.3 72
2018-09-22 17:00:00 23.2 13 Noroeste 22 Oeste 0 1011.9 -0.2 72
2018-09-22 16:00:00 23.2 15 Norte 26 Norte 0 1011.8 -0.4 72
2018-09-22 15:00:00 23.1 12 Nordeste 21 Norte 0 1011.9 -0.2 76
2018-09-22 14:00:00 23.4 12 Nordeste 21 Nordeste 0 1012.1 0.3 74
2018-09-22 13:00:00 22.7 7 Norte 15 Norte 0 1012.2 1 79
2018-09-22 12:00:00 21.1 9 Norte 15 Norte 0 1012.1 1.2 82
2018-09-22 11:00:00 19.1 0 Calma 9 Sur 0 1011.8 1.4 95
2018-09-22 10:00:00 16.4 8 Sur 13 Sur 0 1011.2 1.1 99
2018-09-22 09:00:00 14.6 10 Sur 13 Sur 0 1010.9 0.9 99
2018-09-22 08:00:00 14.7 5 Sur 26 Sur 0 1010.4 0.4 99
2018-09-22 07:00:00 15.1 8 Sur 13 Sur 0 1010.1 0 99
2018-09-22 06:00:00 15.2 5 Sur 13 Sur 0 1010 -0.3 99
2018-09-22 05:00:00 16 6 Sur 8 Sur 0 1010 -0.4 99
2018-09-22 04:00:00 16.5 6 Sur 11 Sur 0 1010.1 -0.6 99
2018-09-22 03:00:00 16.8 8 Sur 11 Sur 0 1010.3 -0.5 99
2018-09-22 02:00:00 17.4 6 Sudeste 13 Sur 0 1010.4 -0.4 99
2018-09-22 01:00:00 17.6 7 Sur 13 Sur 0 1010.7 0.2 98
2018-09-22 00:00:00 17.9 6 Sur 17 Sudeste 0 1010.8 0.5 98
2018-09-21 23:00:00 18.2 5 Sur 18 Sur 0 1010.8 0.6 97
2018-09-21 22:00:00 18 2 Sudeste 9 Sur 0 1010.5 0.4 97
2018-09-21 21:00:00 18.6 3 Este 13 Sur 0 1010.3 0.2 94
2018-09-21 20:00:00 18.5 5 Sudoeste 15 Sur 0 1010.2 -0.1 95
2018-09-21 19:00:00 18.4 0 Calma 11 Norte 0 1010.1 -0.1 97
2018-09-21 18:00:00 17.8 7 Norte 13 Norte 0.2 1010.1 0 98
2018-09-21 17:00:00 17.8 9 Norte 17 Norte 0 1010.3 0 96
2018-09-21 16:00:00 19.3 4 Norte 8 Norte 0 1010.2 0 89
2018-09-21 15:00:00 17.8 3 Norte 13 Norte 0.1 1010.1 0.1 97
2018-09-21 14:00:00 17.3 8 Norte 15 Norte 0.3 1010.3 0.7 97
2018-09-21 13:00:00 18.3 6 Norte 11 Noroeste 0 1010.2 1.4 94
2018-09-21 12:00:00 17.3 8 Norte 21 Norte 0 1010 1.8 98
2018-09-21 11:00:00 17 10 Norte 18 Norte 0.4 1009.6 2.3 97
2018-09-21 10:00:00 17.9 4 Norte 11 Norte 0.8 1008.8 2 97
2018-09-21 09:00:00 17.8 10 Nordeste 30 Sur 0.1 1008.2 1.3 93
2018-09-21 08:00:00 19.4 19 Sur 30 Sudoeste 0 1007.3 0.5 80
2018-09-21 07:00:00 19.3 17 Sur 26 Sur 0 1006.8 0 80
2018-09-21 06:00:00 18.6 15 Sur 21 Sur 0 1006.9 0.1 83
2018-09-21 05:00:00 18.4 8 Sur 24 Sur 0 1006.8 0 84
2018-09-21 04:00:00 18.6 15 Sur 28 Sur 0 1006.8 -0.2 83
2018-09-21 03:00:00 18.8 17 Sur 32 Sur 0 1006.8 -0.2 83
2018-09-21 02:00:00 18.8 19 Sur 30 Sur 0 1006.8 -0.4 83
2018-09-21 01:00:00 18.9 18 Sur 28 Sudoeste 0 1007 -0.3 82
2018-09-21 00:00:00 19.1 18 Sur 30 Sudoeste 0 1007 0.2 82
2018-09-20 23:00:00 19.3 19 Sudoeste 30 Sur 0 1007.2 0.4 81
2018-09-20 22:00:00 19.7 12 Sudoeste 24 Sudoeste 0 1007.3 0.7 78
2018-09-20 21:00:00 20 18 Sur 28 Sur 0 1006.8 0.5 74
2018-09-20 20:00:00 21.8 18 Sudoeste 28 Sudoeste 0 1006.8 0.2 63
2018-09-20 19:00:00 24.6 11 Sudoeste 28 Sudoeste 0 1006.6 0.2 53
2018-09-20 18:00:00 24.4 6 Sudeste 21 Sudeste 0 1006.3 -0.5 59
2018-09-20 17:00:00 22.4 7 Nordeste 21 Nordeste 0 1006.6 -1 68
2018-09-20 16:00:00 23.9 7 Nordeste 28 Sur 0 1006.4 -1.7 63
2018-09-20 15:00:00 25.3 13 Sur 26 Sur 0 1006.8 -1.7 56
2018-09-20 14:00:00 22.1 9 Norte 17 Norte 0 1007.6 -0.8 68
2018-09-20 13:00:00 19.9 10 Norte 15 Norte 0 1008.1 -0.2 75
2018-09-20 12:00:00 18.4 7 Nordeste 11 Nordeste 0 1008.5 0.2 80
2018-09-20 11:00:00 17.3 2 Nordeste 9 Sudeste 0 1008.4 0.2 84
2018-09-20 10:00:00 14.7 3 Sudeste 13 Sur 0 1008.3 0.1 97
2018-09-20 09:00:00 12.4 10 Sur 15 Sur 0 1008.3 0.1 99
2018-09-20 08:00:00 12.2 10 Sur 15 Sudeste 0 1008.2 -0.3 99
2018-09-20 07:00:00 12.5 6 Sur 13 Sur 0 1008.2 -0.5 99
2018-09-20 06:00:00 13.2 7 Sur 17 Sur 0 1008.2 -1 98
2018-09-20 05:00:00 13.4 9 Sur 13 Sur 0 1008.5 -1.3 98
2018-09-20 04:00:00 14.1 9 Sur 13 Sur 0 1008.7 -1.5 98
2018-09-20 03:00:00 14.6 9 Sur 13 Sur 0 1009.2 -1.4 97
2018-09-20 02:00:00 15.3 8 Sudeste 11 Sudeste 0 1009.8 -0.9 96
2018-09-20 01:00:00 16.4 5 Sur 11 Sur 0 1010.2 -0.1 94
2018-09-20 00:00:00 17.1 11 Sur 15 Sur 0 1010.6 0.8 94
2018-09-19 23:00:00 17.1 2 Norte 9 Este 0 1010.7 1.1 95
2018-09-19 22:00:00 17.6 3 Nordeste 15 Nordeste 0 1010.3 1 92
2018-09-19 21:00:00 18.4 10 Nordeste 15 Norte 0 1009.8 0.7 88
2018-09-19 20:00:00 19.8 11 Nordeste 18 Norte 0 1009.6 0.7 81
2018-09-19 19:00:00 22 11 Noroeste 21 Norte 0 1009.3 -0.1 70
2018-09-19 18:00:00 22 13 Norte 24 Norte 0 1009.1 -0.4 72
2018-09-19 17:00:00 22.6 15 Nordeste 30 Norte 0 1008.9 -0.7 72
2018-09-19 16:00:00 22.7 14 Norte 26 Norte 0 1009.4 -0.6 69
2018-09-19 15:00:00 23.1 14 Norte 24 Norte 0 1009.5 -0.6 66
2018-09-19 14:00:00 22.6 10 Nordeste 18 Oeste 0 1009.6 -0.3 65
2018-09-19 13:00:00 23.1 8 Oeste 22 Sudoeste 0 1010 0.6 61
2018-09-19 12:00:00 21.8 13 Sudoeste 26 Sudeste 0 1010.1 1.3 64
2018-09-19 11:00:00 19.5 11 Sudeste 18 Sudeste 0 1009.9 1.5 73
2018-09-19 10:00:00 15.5 12 Sudeste 18 Sudeste 0 1009.4 1.4 86
2018-09-19 09:00:00 12.9 15 Sur 21 Sudeste 0 1008.8 1 93
2018-09-19 08:00:00 11.9 12 Sur 22 Sudeste 0 1008.4 0.5 96
2018-09-19 07:00:00 12.1 11 Sur 21 Sudeste 0 1008 -0.1 96
2018-09-19 06:00:00 12.3 8 Sur 15 Sur 0 1007.8 -0.6 96
2018-09-19 05:00:00 13 11 Sur 13 Sur 0 1007.9 -0.2 95
2018-09-19 04:00:00 13.3 8 Sur 15 Sur 0 1008.1 -0.1 93
2018-09-19 03:00:00 14.1 9 Sur 13 Sur 0 1008.4 0.7 92
2018-09-19 02:00:00 14.5 11 Sur 21 Sudeste 0 1008.1 0.2 93
2018-09-19 01:00:00 14.8 8 Sur 9 Sur 0 1008.2 0.6 89
2018-09-19 00:00:00 15.9 6 Sur 21 Sudeste 0 1007.7 0.9 86
2018-09-18 23:00:00 17.3 11 Sur 18 Sur 0 1007.9 1.6 79
2018-09-18 22:00:00 18.6 8 Sudeste 21 Noroeste 0 1007.6 1.9 71
2018-09-18 21:00:00 19.7 10 Noroeste 22 Noroeste 0 1006.8 1.1 67
2018-09-18 20:00:00 21.1 12 Noroeste 26 Noroeste 0 1006.3 0.7 62
2018-09-18 19:00:00 22.1 6 Norte 24 Noroeste 0 1005.7 0 60
2018-09-18 18:00:00 22.2 11 Norte 21 Noroeste 0 1005.7 -0.3 61
2018-09-18 17:00:00 22.1 13 Nordeste 21 Nordeste 0 1005.6 -0.4 60
2018-09-18 16:00:00 22.9 6 Nordeste 22 Noroeste 0 1005.7 -0.3 58
2018-09-18 15:00:00 21.1 14 Noroeste 26 Noroeste 0 1006 0.4 63
2018-09-18 14:00:00 21.5 10 Norte 21 Norte 0 1006 0.5 67
2018-09-18 13:00:00 22.8 8 Oeste 22 Sudoeste 0 1006 1.1 58
2018-09-18 12:00:00 22.9 9 Sur 26 Sur 0 1005.6 1.3 61
2018-09-18 11:00:00 20.7 12 Sur 21 Sur 0 1005.5 1.5 73
2018-09-18 10:00:00 18.8 17 Sudoeste 22 Sudoeste 0 1004.9 1.3 81
2018-09-18 09:00:00 17.5 12 Sudoeste 18 Sudoeste 0 1004.3 0.7 89
2018-09-18 08:00:00 17.9 10 Sur 15 Sur 0 1004 0.3 93
2018-09-18 07:00:00 18.4 11 Sur 17 Sur 0 1003.6 -0.2 91
2018-09-18 06:00:00 18.1 8 Sur 13 Sur 0 1003.6 -0.3 94
2018-09-18 05:00:00 18.2 10 Sur 13 Sur 0 1003.7 -0.1 94
2018-09-18 04:00:00 18.7 9 Sur 11 Sur 0 1003.8 0 89
2018-09-18 03:00:00 19.1 8 Sur 9 Sur 0 1003.9 0.2 85
2018-09-18 02:00:00 18.8 9 Sudoeste 15 Sudoeste 0 1003.8 0.5 88
2018-09-18 01:00:00 19.2 12 Sudoeste 21 Sudoeste 0 1003.8 0.7 85
2018-09-18 00:00:00 20 11 Sudoeste 17 Sur 0 1003.7 1.4 81
2018-09-17 23:00:00 20.1 4 Norte 24 Sur 0 1003.3 1 79
2018-09-17 22:00:00 20.9 11 Oeste 17 Oeste 0 1003.1 1.3 79
2018-09-17 21:00:00 21.4 9 Oeste 21 Oeste 0 1002.3 0.5 76
2018-09-17 20:00:00 23 10 Noroeste 22 Oeste 0 1002.3 0.3 67
2018-09-17 19:00:00 22.4 11 Nordeste 39 Oeste 0 1001.8 -0.5 64
2018-09-17 18:00:00 27.5 21 Oeste 33 Oeste 0 1001.8 -0.5 36
2018-09-17 17:00:00 23.8 9 Sudoeste 33 Sudoeste 0 1002 -0.4 60
2018-09-17 16:00:00 20.8 18 Norte 28 Oeste 0 1002.3 -0.7 72
2018-09-17 15:00:00 28.5 19 Sudoeste 35 Sur 0 1002.3 -1.3 36
2018-09-17 14:00:00 27.7 22 Sur 35 Sudoeste 0 1002.4 -1 41
2018-09-17 13:00:00 19.5 8 Nordeste 15 Norte 0 1003 -0.2 78
2018-09-17 12:00:00 18.6 6 Nordeste 18 Norte 0 1003.6 0.5 83
2018-09-17 11:00:00 21.1 5 Sudeste 17 Sur 0 1003.4 0.5 73
2018-09-17 10:00:00 17.4 10 Sur 21 Sur 0 1003.2 0.2 86
2018-09-17 09:00:00 13.8 5 Sur 13 Sur 0 1003.1 0.1 97
2018-09-17 08:00:00 12.9 8 Sur 21 Sudeste 0 1002.9 -0.5 98
2018-09-17 07:00:00 13.2 4 Sur 11 Sudeste 0 1003 -0.8 99
2018-09-17 06:00:00 12.7 6 Sur 15 Sur 0 1003 -1.6 99
2018-09-17 05:00:00 11.6 6 Sur 13 Sur 0 1003.4 -2 98
2018-09-17 04:00:00 13 8 Sur 13 Sur 0 1003.8 -2.1 98
2018-09-17 03:00:00 13.4 10 Sur 13 Sur 0 1004.6 -2.2 98
2018-09-17 02:00:00 14.4 4 Sur 8 Sur 0 1005.4 -2 96
2018-09-17 01:00:00 14.7 5 Sur 11 Sur 0 1005.9 -1.8 96
2018-09-17 00:00:00 15.1 8 Sur 15 Sudeste 0 1006.8 -0.7 95
2018-09-16 23:00:00 15.9 5 Sur -- -- 0 1007.4 -0.2 92
2018-09-16 22:00:00 16.5 4 Noroeste 9 Oeste 0 1007.7 0.1 90
2018-09-16 21:00:00 17.4 6 Noroeste 18 Norte 0 1007.5 -0.4 87
2018-09-16 20:00:00 19.1 12 Norte 21 Norte 0 1007.6 -0.8 78
2018-09-16 19:00:00 18.8 11 Norte 22 Norte 0 1007.6 -1 80
2018-09-16 18:00:00 19.8 10 Norte 24 Norte 0 1007.9 -1.5 77
2018-09-16 17:00:00 20.2 13 Norte 22 Norte 0 1008.4 -1.4 76
2018-09-16 16:00:00 21.2 12 Norte 21 Norte 0 1008.6 -1.6 75
2018-09-16 15:00:00 20.8 10 Norte 21 Norte 0 1009.4 -0.7 75
2018-09-16 14:00:00 20.9 9 Norte 17 Norte 0 1009.8 -0.1 76
2018-09-16 13:00:00 19.9 5 Norte 13 Sudeste 0 1010.2 0.4 80
2018-09-16 12:00:00 19 5 Sudeste 11 Sudeste 0 1010.1 1 83
2018-09-16 11:00:00 18.1 6 Este 24 Sudeste 0 1009.9 1 87
2018-09-16 10:00:00 17.2 3 Nordeste 9 Norte 0 1009.8 1.1 91
2018-09-16 09:00:00 16.7 5 Sudeste 8 Sudeste 0 1009.1 0.2 92
2018-09-16 08:00:00 16.5 4 Sur 8 Sur 0 1008.9 0.2 93
2018-09-16 07:00:00 16.4 0 Calma 5 Sudoeste 0 1008.7 -0.2 94
2018-09-16 06:00:00 16.3 0 Calma 8 Sudeste 0 1008.9 -0.2 94
2018-09-16 05:00:00 16.3 4 Noroeste 9 Nordeste 0 1008.7 -0.5 94
2018-09-16 04:00:00 16.6 4 Norte 9 Noroeste 0 1008.9 -0.2 93
2018-09-16 03:00:00 16.6 4 Noroeste 11 Noroeste 0 1009.1 0.1 94
2018-09-16 02:00:00 16.7 3 Noroeste 9 Noroeste 0 1009.2 0.4 94
2018-09-16 01:00:00 16.5 4 Este 15 Este 0 1009.1 0.8 94
2018-09-16 00:00:00 16.3 3 Oeste 13 Sudeste 0 1009 1.7 95
2018-09-15 23:00:00 16 2 Sudoeste 15 Oeste 0 1008.8 1.8 95
2018-09-15 22:00:00 16.7 4 Sudoeste 13 Sudoeste 0 1008.3 1.8 90
2018-09-15 21:00:00 20 4 Noroeste 18 Noroeste 0 1007.3 1.2 76
2018-09-15 20:00:00 22 12 Noroeste 18 Noroeste 0 1007 0.9 70
2018-09-15 19:00:00 23.1 14 Norte 24 Noroeste 0 1006.5 0.2 66
2018-09-15 18:00:00 24.3 17 Norte 22 Norte 0 1006.1 -0.8 60
2018-09-15 17:00:00 24.5 11 Norte 21 Norte 0 1006.1 -1.3 63
2018-09-15 16:00:00 24 10 Norte 18 Norte 0 1006.3 -1.6 64
2018-09-15 15:00:00 23.4 13 Nordeste 18 Nordeste 0 1006.9 -1.2 66
2018-09-15 14:00:00 23.3 10 Norte 15 Norte 0 1007.4 -0.4 66
2018-09-15 13:00:00 22 8 Nordeste 15 Norte 0 1007.9 0.2 69
2018-09-15 12:00:00 20.8 8 Nordeste 13 Nordeste 0 1008.1 0.6 73
2018-09-15 11:00:00 18.5 4 Norte 5 Oeste 0 1007.8 0.7 82
2018-09-15 10:00:00 15.2 0 Calma 9 Sur 0 1007.7 0.7 96
2018-09-15 09:00:00 12.9 8 Sur 13 Sur 0 1007.5 0.6 98
2018-09-15 08:00:00 12.5 8 Sur 11 Sur 0 1007.1 0 98
2018-09-15 07:00:00 12.9 4 Sudoeste 13 Sur 0 1007 -0.6 98
2018-09-15 06:00:00 13.3 6 Sur 11 Sur 0 1006.9 -1.2 97
2018-09-15 05:00:00 14.2 4 Sudoeste 9 Sur 0 1007.1 -1.1 96
2018-09-15 04:00:00 14.6 6 Sur 9 Sur 0 1007.6 -1 93
2018-09-15 03:00:00 15.8 0 Calma 8 Noroeste 0 1008.1 -0.7 91
2018-09-15 02:00:00 16.9 5 Noroeste 8 Noroeste 0 1008.2 -0.6 89
2018-09-15 01:00:00 17.4 5 Noroeste 9 Noroeste 0 1008.6 -0.1 88
2018-09-15 00:00:00 17.8 6 Noroeste 11 Norte 0 1008.8 0.4 86
2018-09-14 23:00:00 18.1 6 Noroeste 17 Norte 0 1008.8 0.8 87
2018-09-14 22:00:00 18.3 9 Norte 21 Norte 0 1008.7 0.9 86
2018-09-14 21:00:00 19.2 10 Norte 22 Norte 0 1008.4 0.6 82
2018-09-14 20:00:00 21 15 Norte 28 Norte 0 1008 0.1 75
2018-09-14 19:00:00 21.1 15 Norte 30 Norte 0 1007.8 -0.2 75
2018-09-14 18:00:00 21.3 19 Norte 33 Norte 0 1007.8 -0.5 75
2018-09-14 17:00:00 21 19 Norte 37 Norte 0 1007.9 -0.7 75
2018-09-14 16:00:00 21.3 24 Norte 37 Norte 0 1008 -1 73
2018-09-14 15:00:00 21.9 15 Norte 32 Norte 0 1008.3 -0.9 73
2018-09-14 14:00:00 20.6 18 Norte 33 Norte 0 1008.6 -0.3 77
2018-09-14 13:00:00 20.8 16 Norte 28 Norte 0 1009 0.2 76
2018-09-14 12:00:00 19.9 10 Norte 18 Norte 0 1009.2 0.8 81
2018-09-14 11:00:00 19.1 9 Norte 15 Norte 0 1008.9 0.8 85
2018-09-14 10:00:00 17.6 8 Norte 13 Nordeste 0 1008.8 0.7 91
2018-09-14 09:00:00 17.1 7 Norte 15 Norte 0 1008.4 0.3 92
2018-09-14 08:00:00 17.2 8 Norte 13 Norte 0 1008.1 -0.4 92
2018-09-14 07:00:00 17.2 7 Norte 13 Norte 0 1008.1 -0.7 92
2018-09-14 06:00:00 16.8 8 Norte 18 Norte 0 1008.1 -0.8 93
2018-09-14 05:00:00 16.6 10 Norte 21 Norte 0 1008.5 -0.9 93
2018-09-14 04:00:00 16.7 9 Norte 17 Norte 0 1008.8 -0.8 95
2018-09-14 03:00:00 16.6 12 Norte 21 Norte 0 1008.9 -0.8 96
2018-09-14 02:00:00 16.7 11 Norte 18 Norte 0 1009.4 -0.5 94
2018-09-14 01:00:00 17.1 7 Norte 17 Noroeste 0 1009.6 0.1 93
2018-09-14 00:00:00 17.5 9 Norte 18 Norte 0 1009.7 0.8 91
2018-09-13 23:00:00 17.7 11 Norte 21 Norte 0 1009.9 1.2 90
2018-09-13 22:00:00 18.1 11 Norte 22 Norte 0 1009.5 0.9 89
2018-09-13 21:00:00 18.9 13 Norte 22 Norte 0 1008.9 0.2 84
2018-09-13 20:00:00 20.2 14 Norte 26 Norte 0 1008.7 -0.4 79
2018-09-13 19:00:00 21.2 13 Norte 32 Noroeste 0 1008.6 -0.9 77
2018-09-13 18:00:00 20.5 21 Norte 39 Norte 0 1008.7 -1.3 80
2018-09-13 17:00:00 21.6 18 Norte 33 Norte 0 1009.1 -1.5 74
2018-09-13 16:00:00 21.3 20 Norte -- -- -- 1009.5 -1.4 75
2018-09-13 15:00:00 22 15 Norte 28 Norte 0 1010 -1.1 73
2018-09-13 14:00:00 21.7 14 Norte 22 Norte 0 1010.6 -0.5 73
2018-09-13 13:00:00 21 10 Norte 17 Norte 0 1010.9 -0.1 74
2018-09-13 12:00:00 20.2 6 Norte 13 Norte 0 1011.1 0.5 80
2018-09-13 11:00:00 17.2 4 Norte 9 Norte 0 1011.1 0.8 97
2018-09-13 10:00:00 16.3 3 Sur 9 Sur 0 1011 0.8 99
2018-09-13 09:00:00 15 6 Sur 9 Sur 0 1010.6 0.5 99
2018-09-13 08:00:00 15.2 3 Sur 11 Sur 0 1010.3 -0.2 98
2018-09-13 07:00:00 15.7 5 Sur 17 Sudeste 0 1010.2 -0.5 98
2018-09-13 06:00:00 14.9 8 Sur -- -- 0 1010.1 -0.9 96
2018-09-13 05:00:00 16 0 Calma -- -- 0 1010.5 -0.7 96
2018-09-13 04:00:00 16.2 5 Norte -- -- 0 1010.7 -0.8 96
2018-09-13 03:00:00 16.4 0 Calma 9 Noroeste 0 1011 -0.6 94
2018-09-13 02:00:00 17 5 Noroeste 11 Norte 0 1011.2 -0.4 93
2018-09-13 01:00:00 17.3 5 Noroeste 13 Norte 0 1011.5 0.2 91
2018-09-13 00:00:00 18.1 9 Noroeste 13 Norte 0 1011.6 0.8 88
2018-09-12 23:00:00 18.4 8 Norte 17 Norte 0 1011.6 1.1 87
2018-09-12 22:00:00 18.8 11 Norte 24 Norte 0 1011.3 0.9 85
2018-09-12 21:00:00 19 14 Norte 26 Norte 0 1010.8 0.3 85
2018-09-12 20:00:00 19.6 14 Noroeste 32 Noroeste 0 1010.5 0 83
2018-09-12 19:00:00 20.8 16 Norte 32 Norte 0 1010.4 -0.2 80
2018-09-12 18:00:00 21.7 17 Norte 33 Norte 0 1010.5 -0.3 76
2018-09-12 17:00:00 21.8 16 Norte 32 Norte 0 1010.5 -0.5 77
2018-09-12 16:00:00 21.8 14 Norte 30 Norte 0 1010.6 -0.7 77
2018-09-12 15:00:00 21.3 15 Norte 26 Norte 0 1010.8 -0.5 77
2018-09-12 14:00:00 20.5 14 Norte 18 Norte 0 1011 0.2 79
2018-09-12 13:00:00 20.5 8 Norte 15 Norte 0 1011.3 0.9 80
2018-09-12 12:00:00 19.5 3 Este 8 Sudeste 0 1011.3 1.2 84
2018-09-12 11:00:00 17.2 4 Este 9 Este 0 1010.8 1.3 93
2018-09-12 10:00:00 16.5 4 Sudeste 15 Sudeste 0 1010.4 1.1 98
2018-09-12 09:00:00 16.1 5 Norte 9 Norte 0 1010.1 0.9 98
2018-09-12 08:00:00 15.9 3 Noroeste 5 Sur 0 1009.5 0.4 98
2018-09-12 07:00:00 15.5 0 Calma 11 Sudeste 0 1009.3 0.8 98
2018-09-12 06:00:00 15.7 0 Calma 8 Noroeste 0 1009.2 0.3 98
2018-09-12 05:00:00 14.7 2 Noroeste 8 Noroeste 0 1009.1 -0.2 98
2018-09-12 04:00:00 14.9 6 Sur 9 Sur 0 1008.5 -1 97
2018-09-12 03:00:00 15.2 9 Sur 11 Sur 0 1008.9 -0.3 95
2018-09-12 02:00:00 15.6 9 Sur 11 Sur 0 1009.3 0.3 95
2018-09-12 01:00:00 16.1 9 Nordeste 15 Norte 0 1009.5 1 94
2018-09-12 00:00:00 16.9 0 Calma 13 Sur 0 1009.2 1.4 90
2018-09-11 23:00:00 17.4 8 Sur 13 Sur 0 1009 1.4 89
2018-09-11 22:00:00 18 6 Norte 15 Norte 0 1008.5 0.8 86
2018-09-11 21:00:00 21 8 Nordeste 11 Nordeste 0 1007.8 -0.1 76
2018-09-11 20:00:00 24.4 6 Nordeste 13 Nordeste 0 1007.6 -0.6 64
2018-09-11 19:00:00 24.3 12 Nordeste 18 Norte 0 1007.7 -1 66
2018-09-11 18:00:00 24.5 10 Nordeste 18 Nordeste 0 1007.9 -1.4 65
2018-09-11 17:00:00 24 13 Norte 21 Norte 0 1008.2 -1.7 66
2018-09-11 16:00:00 24.3 14 Norte 18 Norte 0 1008.7 -1.8 65
2018-09-11 15:00:00 22.1 12 Nordeste 21 Norte 0 1009.3 -1.5 71
2018-09-11 14:00:00 20.9 14 Nordeste 21 Norte 0 1009.9 -1 72
2018-09-11 13:00:00 20.4 9 Norte 13 Nordeste 0 1010.5 -0.3 75
2018-09-11 12:00:00 17.9 7 Nordeste 15 Norte 0 1010.8 0.1 86
2018-09-11 11:00:00 16.3 5 Nordeste 11 Sur 0 1010.9 0.4 98
2018-09-11 10:00:00 13.9 10 Sur 11 Sur 0 1010.8 0.7 99
2018-09-11 09:00:00 12.4 9 Sur 11 Sur 0 1010.7 0.5 99
2018-09-11 08:00:00 12.2 3 Sudoeste 8 Sur 0 1010.5 0.2 99
2018-09-11 07:00:00 12.4 0 Calma 8 Sur 0 1010.1 -0.5 99
2018-09-11 06:00:00 12.9 6 Sur 11 Sur 0 1010.2 -0.6 99
2018-09-11 05:00:00 13.8 9 Sur 13 Sur 0 1010.3 -0.7 98
2018-09-11 04:00:00 13.6 6 Sur -- -- 0 1010.6 -0.9 98
2018-09-11 03:00:00 13.9 8 Sur -- -- 0 1010.8 -0.7 97
2018-09-11 02:00:00 14.6 5 Sur 8 Sur 0 1011 -0.5 94
2018-09-11 01:00:00 15.2 0 Calma 5 Norte 0 1011.5 0.3 95
2018-09-11 00:00:00 16 3 Norte 11 Norte 0 1011.5 0.7 93
2018-09-10 23:00:00 16.7 3 Noroeste 5 Oeste 0 1011.5 0.8 90
2018-09-10 22:00:00 17.6 3 Norte 9 Este 0 1011.2 0.5 88
2018-09-10 21:00:00 19.2 7 Este 13 Nordeste 0 1010.8 -0.1 81
2018-09-10 20:00:00 21.3 10 Nordeste 18 Noroeste 0 1010.7 -0.5 72
2018-09-10 19:00:00 24 11 Norte 24 Norte 0 1010.7 -0.8 63
2018-09-10 18:00:00 23.6 14 Noroeste 28 Norte 0 1010.9 -1 64
2018-09-10 17:00:00 22.4 17 Norte 26 Norte 0 1011.2 -1 68
2018-09-10 16:00:00 22.4 14 Norte 21 Norte 0 1011.5 -1.1 69
2018-09-10 15:00:00 22.2 12 Norte 24 Norte 0 1011.9 -0.8 69
2018-09-10 14:00:00 22.1 11 Norte 17 Nordeste 0 1012.2 -0.2 70
2018-09-10 13:00:00 21 10 Norte 15 Norte 0 1012.6 0.3 75
2018-09-10 12:00:00 20.8 5 Este 13 Sudeste 0 1012.7 0.4 78
2018-09-10 11:00:00 16.4 2 Sur 11 Sudeste 0 1012.4 0.3 99
2018-09-10 10:00:00 14.1 6 Sur 11 Sur 0 1012.3 0.6 99
2018-09-10 09:00:00 13.7 7 Sur 13 Sur 0 1012.3 0.7 99
2018-09-10 08:00:00 13.3 7 Sur 9 Sur 0 1012.1 0.7 99
2018-09-10 07:00:00 13.5 4 Sudoeste 11 Sur 0 1011.7 0.1 99
2018-09-10 06:00:00 13.4 2 Sudoeste 9 Sur 0 1011.6 0 99
2018-09-10 05:00:00 13.2 8 Sur 11 Sur 0 1011.4 -0.3 98
2018-09-10 04:00:00 13.4 5 Sur 9 Sur 0 1011.6 -0.2 98
2018-09-10 03:00:00 14.1 7 Sur 8 Sur 0 1011.6 -0.2 96
2018-09-10 02:00:00 14.8 6 Sur 9 Sur 0 1011.7 0.1 95
2018-09-10 01:00:00 15.5 2 Sur 5 Sur 0 1011.8 0.8 94
2018-09-10 00:00:00 16.3 3 Sur 9 Sudeste 0 1011.8 1.4 92
2018-09-09 23:00:00 17 0 Calma 5 Sudeste 0 1011.6 1.6 90
2018-09-09 22:00:00 17.9 5 Norte 11 Noroeste 0 1011 1.3 86
2018-09-09 21:00:00 18.9 7 Noroeste 18 Noroeste 0 1010.4 0.9 82
2018-09-09 20:00:00 20.8 11 Noroeste 28 Noroeste 0 1010 0.4 75
2018-09-09 19:00:00 21.3 18 Norte 30 Norte 0 1009.7 0 73
2018-09-09 18:00:00 21.1 16 Norte 24 Norte 0 1009.5 -0.5 75
2018-09-09 17:00:00 21.7 14 Norte 28 Norte 0 1009.6 0.1 74
2018-09-09 16:00:00 21 16 Norte 33 Norte 0 1009.7 0.3 79
2018-09-09 15:00:00 21.8 17 Norte 28 Norte 0 1010 0.3 76
2018-09-09 14:00:00 20.7 15 Nordeste 26 Norte 0 1009.5 -0.1 72
2018-09-09 13:00:00 23.3 4 Noroeste 15 Sur 0 1009.4 0.5 62
2018-09-09 12:00:00 20 5 Nordeste 13 Nordeste 0 1009.7 1.1 73
2018-09-09 11:00:00 18 5 Nordeste 9 Este 0 1009.6 1.8 78
2018-09-09 10:00:00 15.9 5 Sur 11 Sur 0 1008.9 1.7 87
2018-09-09 09:00:00 14.2 6 Sur 13 Sur 0 1008.6 1.8 95
2018-09-09 08:00:00 13.1 7 Sur 9 Sur 0 1007.8 1 95
2018-09-09 07:00:00 13.5 5 Oeste 11 Sur 0 1007.2 0.6 94
2018-09-09 06:00:00 13.8 10 Sur 11 Sur 0 1006.8 0.4 93
2018-09-09 05:00:00 14.3 8 Sur 13 Sur 0 1006.8 0.4 93
2018-09-09 04:00:00 14.9 5 Sur 11 Sur 0 1006.6 0.2 87
2018-09-09 03:00:00 15.6 4 Noroeste 9 Norte 0 1006.4 0.5 86
2018-09-09 02:00:00 16 5 Sudoeste 13 Norte 0 1006.4 0.8 85
2018-09-09 01:00:00 16.7 7 Norte 13 Norte 0 1006.4 0.8 85
2018-09-09 00:00:00 17.7 5 Noroeste 32 Sudeste 0 1005.9 1.1 77
2018-09-08 23:00:00 18.4 8 Sur 15 Sur 0 1005.6 1.8 73
2018-09-08 22:00:00 19.5 10 Sur 15 Sur 0 1005.6 2.3 68
2018-09-08 21:00:00 21.1 6 Oeste 13 Oeste 0 1004.8 1.9 60
2018-09-08 20:00:00 23.5 8 Noroeste 22 Norte 0 1003.8 0.9 52
2018-09-08 19:00:00 25.1 14 Noroeste 28 Oeste 0 1003.3 0.4 46
2018-09-08 18:00:00 26.8 12 Norte 26 Noroeste 0 1002.9 0 42
2018-09-08 17:00:00 27 13 Norte 28 Norte 0 1002.9 -0.1 43
2018-09-08 16:00:00 25.8 16 Norte 24 Norte 0 1002.9 -0.2 51
2018-09-08 15:00:00 26.4 15 Norte 26 Norte 0 1002.9 -0.3 52
2018-09-08 14:00:00 26.3 10 Nordeste 15 Norte 0 1003 0.1 55
2018-09-08 13:00:00 25.1 8 Nordeste 15 Nordeste 0 1003.1 0.3 58
2018-09-08 12:00:00 22.1 6 Norte 9 Norte 0 1003.2 0.7 67
2018-09-08 11:00:00 19.8 5 Sudeste 18 Este 0 1002.9 0.8 72
2018-09-08 10:00:00 15.7 8 Sur 11 Sur 0 1002.8 0.7 88
2018-09-08 09:00:00 13.2 3 Oeste 15 Sur 0 1002.5 0 95
2018-09-08 08:00:00 12.7 13 Sur 17 Este 0 1002.1 -0.6 96
2018-09-08 07:00:00 12.9 8 Sur 13 Sur 0 1002.1 -0.8 94
2018-09-08 06:00:00 13.2 10 Sur 11 Sur 0 1002.5 -0.7 94
2018-09-08 05:00:00 13.5 0 Calma 8 Sur 0 1002.7 -1.1 92
2018-09-08 04:00:00 13.9 6 Sudeste 15 Sur 0 1002.9 -1.1 92
2018-09-08 03:00:00 15 4 Sudoeste -- -- 0 1003.2 -1.1 86
2018-09-08 02:00:00 15.5 2 Sur 5 Sur 0 1003.8 -0.6 83
2018-09-08 01:00:00 16.3 2 Norte 8 Sudeste 0 1004 -0.2 80
2018-09-08 00:00:00 17.6 5 Este 15 Este 0 1004.3 1 75
2018-09-07 23:00:00 18.3 8 Este 17 Este 0 1004.4 1.4 72
2018-09-07 22:00:00 19.3 13 Este 24 Este 0 1004.2 1.6 68
2018-09-07 21:00:00 21 12 Nordeste 22 Este 0 1003.3 0.7 63
2018-09-07 20:00:00 23.2 9 Nordeste 22 Norte 0 1003 0 58
2018-09-07 19:00:00 24.4 13 Norte 24 Norte 0 1002.6 -0.8 57
2018-09-07 18:00:00 25.5 13 Norte 26 Norte 0 1002.6 -1.3 54
2018-09-07 17:00:00 25.5 16 Nordeste 28 Norte 0 1003 -1.6 53
2018-09-07 16:00:00 25.1 13 Norte 26 Norte 0 1003.4 -1.6 54
2018-09-07 15:00:00 25.5 13 Nordeste 32 Sudeste 0 1003.9 -1.6 52
2018-09-07 14:00:00 25.2 10 Sudeste 24 Este 0 1004.6 -0.9 51
2018-09-07 13:00:00 23.4 9 Este 21 Este 0 1005 -0.5 57
2018-09-07 12:00:00 21.3 8 Nordeste 17 Este 0 1005.5 0.1 64
2018-09-07 11:00:00 19.1 7 Nordeste 11 Este 0 1005.5 0.2 71
2018-09-07 10:00:00 16.5 2 Norte 5 Norte 0 1005.5 0.3 82
2018-09-07 09:00:00 13.9 4 Noroeste 8 Sur 0 1005.4 0.1 93
2018-09-07 08:00:00 13.2 2 Sur 8 Sur 0 1005.3 -0.1 92
2018-09-07 07:00:00 15.1 3 Norte 13 Norte 0 1005.2 -0.3 87
2018-09-07 06:00:00 15.6 6 Norte 11 Norte 0 1005.3 -0.4 86
2018-09-07 05:00:00 15.9 6 Norte 13 Noroeste 0 1005.4 -0.7 85
2018-09-07 04:00:00 16.3 9 Norte 13 Norte 0 1005.5 -1.1 84
2018-09-07 03:00:00 16.7 9 Norte 18 Nordeste 0 1005.7 -1.3 83
2018-09-07 02:00:00 17.2 9 Norte 17 Norte 0 1006.1 -1.2 80
2018-09-07 01:00:00 17.5 11 Norte 21 Norte 0 1006.6 -0.6 79
2018-09-07 00:00:00 17.7 10 Norte 21 Nordeste 0 1007 0.1 78
2018-09-06 23:00:00 17.9 11 Norte 22 Norte 0 1007.3 0.4 78
2018-09-06 22:00:00 17.9 13 Norte 22 Norte 0 1007.2 0.5 78
2018-09-06 21:00:00 18.3 12 Nordeste 24 Norte 0 1006.9 0.1 77
2018-09-06 20:00:00 18.5 14 Nordeste 32 Norte 0 1006.9 0 77
2018-09-06 19:00:00 18.8 18 Nordeste 35 Nordeste 0 1006.7 -0.7 76
2018-09-06 18:00:00 20 20 Nordeste 39 Nordeste 0 1006.8 -0.9 71
2018-09-06 17:00:00 21.3 19 Nordeste 42 Nordeste 0 1006.9 -1 67
2018-09-06 16:00:00 20.7 24 Nordeste 42 Nordeste 0 1007.4 -0.7 68
2018-09-06 15:00:00 21.3 19 Nordeste 37 Nordeste 0 1007.7 -0.5 66
2018-09-06 14:00:00 20.7 23 Nordeste 35 Nordeste 0 1007.9 0.1 69
2018-09-06 13:00:00 20 19 Nordeste 37 Nordeste 0 1008.1 0.8 73
2018-09-06 12:00:00 18.7 17 Nordeste 35 Nordeste 0 1008.2 1.2 81
2018-09-06 11:00:00 17.8 13 Nordeste 24 Nordeste 0.1 1007.8 1.3 91
2018-09-06 10:00:00 17 9 Norte 17 Norte 0.1 1007.3 1.1 94
2018-09-06 09:00:00 16.6 9 Norte 21 Norte 0.3 1007 0.7 96
2018-09-06 08:00:00 17.1 10 Norte 21 Norte 0 1006.5 0.1 91
2018-09-06 07:00:00 17.3 8 Norte 17 Norte 0 1006.2 -0.4 89
2018-09-06 06:00:00 17.4 9 Norte 13 Norte 0 1006.3 -0.6 89
2018-09-06 05:00:00 17.2 9 Norte 18 Norte 0 1006.4 -0.6 89
2018-09-06 04:00:00 16.9 8 Norte 15 Norte 0 1006.6 -0.5 88
2018-09-06 03:00:00 17.1 8 Norte 13 Norte 0 1006.9 -0.2 91
2018-09-06 02:00:00 17.3 9 Norte 18 Norte 0 1007 0.1 90
2018-09-06 01:00:00 17.5 8 Norte 18 Norte 0 1007.1 0.7 90
2018-09-06 00:00:00 17.5 12 Norte 21 Norte 0 1007.1 1.3 89
2018-09-05 23:00:00 16.8 11 Norte 22 Norte 0 1006.9 1.2 91
2018-09-05 22:00:00 17.5 13 Norte 24 Norte 0 1006.4 0.7 87
2018-09-05 21:00:00 18 13 Norte 22 Norte 0 1005.8 0.3 83
2018-09-05 20:00:00 18 13 Norte 24 Norte 0 1005.7 0.1 84
2018-09-05 19:00:00 19.5 11 Norte 26 Norte 0 1005.7 0.2 77
2018-09-05 18:00:00 20.1 17 Nordeste 30 Nordeste 0 1005.5 -0.2 72
2018-09-05 17:00:00 20.2 22 Nordeste 39 Nordeste 0 1005.6 -0.1 67
2018-09-05 16:00:00 20.9 22 Nordeste 37 Nordeste 0 1005.5 -0.3 64
2018-09-05 15:00:00 19.4 16 Norte 30 Norte 0 1005.7 0.3 70
2018-09-05 14:00:00 19 13 Norte 32 Nordeste 0 1005.7 0.8 72
2018-09-05 13:00:00 20.2 24 Nordeste 41 Nordeste 0 1005.8 1 67
2018-09-05 12:00:00 20.6 23 Nordeste 39 Nordeste 0 1005.4 0.9 69
2018-09-05 11:00:00 19.2 12 Norte 22 Norte 0 1004.9 0.9 77
2018-09-05 10:00:00 18.2 8 Norte 21 Norte 0 1004.8 1.7 82
2018-09-05 09:00:00 17.3 10 Norte 22 Norte 0 1004.5 1.8 85
2018-09-05 08:00:00 17.6 9 Norte 24 Nordeste 0 1004 0.9 83
2018-09-05 07:00:00 17.4 9 Norte 21 Nordeste 0 1003.1 -0.4 84
2018-09-05 06:00:00 17.7 12 Norte 22 Norte 0 1002.7 -1 87
2018-09-05 05:00:00 17.8 13 Norte 22 Norte 0 1003.1 -0.6 89
2018-09-05 04:00:00 17.3 11 Norte 26 Norte 0 1003.5 0 91
2018-09-05 03:00:00 17.4 15 Norte 26 Norte 0 1003.7 -0.1 91
2018-09-05 02:00:00 17.8 13 Norte 22 Norte 0 1003.7 0.2 89
2018-09-05 01:00:00 18.8 13 Norte 24 Norte 0 1003.5 0.2 84
2018-09-05 00:00:00 18.3 14 Norte 24 Norte 0 1003.8 1.2 87
2018-09-04 23:00:00 17.7 13 Norte 26 Noroeste 0 1003.5 1.2 89
2018-09-04 22:00:00 17.9 10 Norte 26 Norte 0 1003.3 1.1 91
2018-09-04 21:00:00 18 14 Norte 28 Norte 0 1002.6 0.2 90
2018-09-04 20:00:00 19.8 12 Norte 21 Norte 0 1002.3 -0.5 82
2018-09-04 19:00:00 19.7 12 Norte 22 Norte 0 1002.2 -0.6 83
2018-09-04 18:00:00 20.1 11 Norte 22 Norte 0 1002.4 -0.7 76
2018-09-04 17:00:00 20.8 10 Norte 18 Norte 0 1002.8 -0.5 67
2018-09-04 16:00:00 20.7 10 Norte 17 Noroeste 0 1002.8 -0.7 70
2018-09-04 15:00:00 19.6 8 Norte 17 Noroeste 0 1003.1 -0.1 80
2018-09-04 14:00:00 18.9 9 Norte 18 Nordeste 0 1003.3 0.4 82
2018-09-04 13:00:00 20.1 13 Nordeste 30 Este 0 1003.5 0.7 74
2018-09-04 12:00:00 20.8 10 Nordeste 22 Nordeste 0 1003.2 0.5 71
2018-09-04 11:00:00 19.7 11 Norte 21 Nordeste 0 1002.9 0.4 75
2018-09-04 10:00:00 18.8 9 Norte 18 Norte 0 1002.8 0.6 78
2018-09-04 09:00:00 18.4 12 Norte 22 Nordeste 0 1002.7 0.3 80
2018-09-04 08:00:00 17.8 8 Norte 15 Norte 0 1002.5 -0.1 84
2018-09-04 07:00:00 17.8 8 Norte 17 Norte 0 1002.2 -0.5 83
2018-09-04 06:00:00 18.1 8 Norte 18 Norte 0 1002.4 -0.7 81
2018-09-04 05:00:00 18.3 9 Norte 18 Norte 0 1002.6 -0.5 80
2018-09-04 04:00:00 18.4 7 Norte 13 Norte 0 1002.7 -0.6 77
2018-09-04 03:00:00 18.9 8 Norte 17 Nordeste 0 1003.1 -0.3 73
2018-09-04 02:00:00 19 10 Norte 22 Norte 0 1003.1 -0.4 72
2018-09-04 01:00:00 19.2 11 Norte 24 Norte 0 1003.3 0.3 73
2018-09-04 00:00:00 19.2 13 Norte 21 Norte 0 1003.4 1 74
2018-09-03 23:00:00 19.6 9 Norte 21 Norte 0 1003.5 1.5 74
2018-09-03 22:00:00 20.3 9 Norte 18 Nordeste 0 1003 1.6 69
2018-09-03 21:00:00 21.7 11 Nordeste 26 Nordeste 0 1002.4 1.4 62
2018-09-03 20:00:00 22.7 14 Nordeste 39 Nordeste 0 1002 1.3 59
2018-09-03 19:00:00 24.4 26 Nordeste 41 Nordeste 0 1001.4 0.9 55
2018-09-03 18:00:00 25.9 26 Nordeste 39 Nordeste 0 1001 0.7 50
2018-09-03 17:00:00 26.9 20 Nordeste 33 Nordeste 0 1000.7 -0.2 49
2018-09-03 16:00:00 27.1 21 Nordeste 41 Este 0 1000.5 -0.5 47
2018-09-03 15:00:00 28.1 25 Este 39 Este 0 1000.3 -1.1 42
2018-09-03 14:00:00 27.3 24 Este 37 Este 0 1000.9 -0.8 44
2018-09-03 13:00:00 26 18 Este 33 Este 0 1001 -0.8 51
2018-09-03 12:00:00 21.8 6 Norte 11 Noroeste 0 1001.4 0.4 68
2018-09-03 11:00:00 19.1 3 Este 13 Sur 0 1001.7 1.4 81
2018-09-03 10:00:00 17.5 11 Sur 15 Sur 0 1001.8 1.7 90
2018-09-03 09:00:00 17.8 6 Noroeste 9 Noroeste 0 1001 0.8 81
2018-09-03 08:00:00 16.8 4 Noroeste 17 Sudeste 0 1000.3 -0.1 94
2018-09-03 07:00:00 17.3 5 Sudeste 22 Sudeste 0 1000.1 0.2 94
2018-09-03 06:00:00 17.9 0 Calma 8 Noroeste 0 1000.2 -0.1 90
2018-09-03 05:00:00 18.4 6 Noroeste 11 Noroeste 0 1000.4 -0.4 87
2018-09-03 04:00:00 19 6 Sur 15 Sur 0 999.9 -1.4 87
2018-09-03 03:00:00 19.1 3 Sudeste 17 Norte 0.3 1000.3 -1.2 86
2018-09-03 02:00:00 19.8 6 Este 11 Este 0 1000.8 -0.5 80
2018-09-03 01:00:00 19.6 4 Norte 8 Norte 0 1001.3 0.4 79
2018-09-03 00:00:00 19.6 6 Norte 11 Nordeste 0 1001.5 1.5 79
2018-09-02 23:00:00 21 4 Noroeste 9 Noroeste 0 1001.3 0.9 77
2018-09-02 22:00:00 21.2 2 Norte 13 Norte 0 1000.9 1 73
2018-09-02 21:00:00 22.6 8 Norte 13 Norte 0 1000 0.1 71
2018-09-02 20:00:00 24.3 9 Nordeste 17 Nordeste 0 1000.4 0.2 66
2018-09-02 19:00:00 28.5 9 Norte 18 Noroeste 0 999.9 -0.4 53
2018-09-02 18:00:00 30.2 10 Noroeste 21 Norte 0 999.9 -0.8 50
2018-09-02 17:00:00 31.4 13 Norte 21 Norte 0 1000.2 -0.9 47
2018-09-02 16:00:00 31 12 Norte 21 Norte 0 1000.3 -1.2 49
2018-09-02 15:00:00 31.1 13 Norte 18 Norte 0 1000.7 -1.1 49
2018-09-02 14:00:00 31.4 6 Nordeste 11 Nordeste 0 1001.1 -0.6 51
2018-09-02 13:00:00 29.2 4 Norte 9 Norte 0 1001.5 -0.1 57
2018-09-02 12:00:00 26.8 4 Norte 8 Norte 0 1001.8 0.5 64
2018-09-02 11:00:00 25.1 0 Calma 9 Este 0 1001.7 0.6 67
2018-09-02 10:00:00 21.4 6 Sur 28 Sudeste 0 1001.6 0.6 76
2018-09-02 09:00:00 19 10 Sur 17 Sur 0 1001.3 0.2 85
2018-09-02 08:00:00 17.1 6 Sur 13 Sur 0 1001.1 -0.4 93
2018-09-02 07:00:00 17 10 Sur 21 Sudeste 0 1001 -0.8 95
2018-09-02 06:00:00 17.2 10 Sur 13 Sur 0 1001.1 -1.1 94
2018-09-02 05:00:00 17.7 10 Sur 13 Sur 0 1001.5 -0.9 94
2018-09-02 04:00:00 18.2 7 Sur 11 Sur 0 1001.8 -1.1 93
2018-09-02 03:00:00 19.2 6 Sur 9 Sur 0 1002.2 -1.1 88
2018-09-02 02:00:00 20.1 3 Sudeste 11 Sur 0 1002.4 -1 86
2018-09-02 01:00:00 21.4 7 Sudeste 22 Sudeste 0 1002.9 -0.4 76
2018-09-02 00:00:00 22.1 6 Sur 11 Sudeste 0 1003.3 0.3 77
2018-09-01 23:00:00 23 5 Sudeste 9 Sur 0 1003.4 0.5 73
2018-09-01 22:00:00 23.8 6 Este 15 Sudeste 0 1003.3 0.4 71
2018-09-01 21:00:00 25.6 2 Norte 11 Norte 0 1003 0.1 65
2018-09-01 20:00:00 27.4 10 Norte 17 Norte 0 1002.9 -0.4 60
2018-09-01 19:00:00 28.8 11 Norte 18 Norte 0 1002.9 -0.9 57
2018-09-01 18:00:00 29.9 12 Norte 21 Norte 0 1002.9 -1.4 54
2018-09-01 17:00:00 29.2 13 Norte 22 Norte 0 1003.3 -1.5 55
2018-09-01 16:00:00 29 13 Norte 21 Norte 0 1003.8 -1.6 54
2018-09-01 15:00:00 28.6 11 Norte 18 Nordeste 0 1004.3 -1.6 55
2018-09-01 14:00:00 28.2 7 Nordeste 13 Nordeste 0 1004.8 -1.3 56
2018-09-01 13:00:00 26.2 2 Nordeste 13 Norte 0 1005.4 -0.8 59
2018-09-01 12:00:00 24.6 6 Sudeste 18 Sur 0 1005.9 -0.1 62
2018-09-01 11:00:00 21.9 3 Este 8 Este 0 1006.1 0.1 70
2018-09-01 10:00:00 18.1 6 Sur 8 Sur 0 1006.2 0.3 86
2018-09-01 09:00:00 15.2 5 Sur 11 Sur 0 1006 -0.2 96
2018-09-01 08:00:00 14 5 Sur 9 Sur 0 1006 -0.3 97
2018-09-01 07:00:00 15 6 Sur 15 Sur 0 1005.9 -1 96
2018-09-01 06:00:00 15 8 Sur 9 Sur 0 1006.2 -0.9 94
2018-09-01 05:00:00 15.6 5 Sur 8 Sur 0 1006.3 -1.1 93
2018-09-01 04:00:00 16.4 0 Calma 8 Noroeste 0 1006.9 -0.8 89
2018-09-01 03:00:00 18 5 Noroeste 9 Norte 0 1007.1 -0.8 87
2018-09-01 02:00:00 18.2 6 Noroeste 9 Noroeste 0 1007.4 -0.5 87
2018-09-01 01:00:00 18.7 6 Norte 15 Norte 0 1007.7 0.1 84
2018-09-01 00:00:00 19.3 7 Noroeste 17 Norte 0 1007.9 0.8 81
2018-08-31 23:00:00 20.3 9 Norte 15 Norte 0 1007.9 0.9 77
2018-08-31 22:00:00 20.8 8 Norte 18 Norte 0 1007.6 0.6 76
2018-08-31 21:00:00 21.4 11 Norte 26 Norte 0 1007.1 0.1 74
2018-08-31 20:00:00 23.7 15 Norte 26 Norte 0 1007 -0.2 67
2018-08-31 19:00:00 24.5 15 Norte 28 Norte 0 1007 -0.6 65
2018-08-31 18:00:00 24.5 19 Norte 32 Norte 0 1007 -0.7 66
2018-08-31 17:00:00 24.7 19 Norte 35 Norte 0 1007.2 -1 66
2018-08-31 16:00:00 23.9 21 Norte -- -- -- 1007.6 -1 67
2018-08-31 15:00:00 24.2 16 Norte 26 Norte 0 1007.7 -1.3 66
2018-08-31 14:00:00 23.4 14 Norte 24 Norte 0 1008.2 -1 69
2018-08-31 13:00:00 22.9 9 Norte 15 Norte 0 1008.6 -0.5 71
2018-08-31 12:00:00 21.3 9 Norte 15 Norte 0 1009 -0.3 76
2018-08-31 11:00:00 18.7 4 Norte 9 Noroeste 0 1009.2 0.1 85
2018-08-31 10:00:00 15.3 0 Calma 11 Sur 0 1009.1 0.3 96
2018-08-31 09:00:00 13.1 5 Sur 11 Sur 0 1009.3 0.5 98
2018-08-31 08:00:00 12.5 6 Sur 11 Sur 0 1009.1 0.2 98
2018-08-31 07:00:00 13.1 8 Sur 11 Sur 0 1008.8 -0.2 97
2018-08-31 06:00:00 13.6 8 Sur 9 Sur 0 1008.8 -0.5 96
2018-08-31 05:00:00 14.4 3 Noroeste 9 Sur 0 1008.9 -0.6 95
2018-08-31 04:00:00 14.6 6 Sur 9 Sur 0 1009 -0.7 92
2018-08-31 03:00:00 15.9 4 Noroeste 11 Noroeste 0 1009.3 -0.8 92
2018-08-31 02:00:00 16.3 5 Noroeste 8 Noroeste 0 1009.5 -0.7 89
2018-08-31 01:00:00 16.8 3 Noroeste 8 Noroeste 0 1009.7 -0.2 87
2018-08-31 00:00:00 17.3 5 Noroeste 13 Norte 0 1010.1 0.8 84
2018-08-30 23:00:00 18.2 7 Norte 11 Norte 0 1010.2 1 80
2018-08-30 22:00:00 18.8 8 Norte 21 Norte 0 1009.9 0.7 78
2018-08-30 21:00:00 19.2 12 Norte 24 Noroeste 0 1009.3 0 78
2018-08-30 20:00:00 20 16 Norte 32 Noroeste 0 1009.2 -0.1 74
2018-08-30 19:00:00 20.5 18 Norte 33 Norte 0 1009.2 -0.6 69
2018-08-30 18:00:00 20.4 25 Norte 42 Norte 0 1009.3 -0.9 68
2018-08-30 17:00:00 20.8 23 Norte 37 Norte 0 1009.3 -1.2 70
2018-08-30 16:00:00 21.2 17 Norte 32 Norte 0 1009.8 -0.9 68
2018-08-30 15:00:00 20.8 17 Norte 32 Norte 0 1010.2 -0.8 68
2018-08-30 14:00:00 20.4 17 Norte 28 Norte 0 1010.5 -0.4 70
2018-08-30 13:00:00 20.1 14 Norte 22 Norte 0 1010.7 -0.4 70
2018-08-30 12:00:00 19.3 10 Norte 17 Norte 0 1011 0.2 71
2018-08-30 11:00:00 17.7 4 Norte 8 Norte 0 1010.9 0.5 76
2018-08-30 10:00:00 14.9 5 Sur 15 Sudeste 0 1011.1 0.8 89
2018-08-30 09:00:00 12.5 6 Sur 13 Sudeste 0 1010.8 0.4 97
2018-08-30 08:00:00 12.3 10 Sur 13 Sur 0 1010.4 -0.3 97
2018-08-30 07:00:00 13.1 7 Sur 18 Sur 0 1010.3 -0.8 96
2018-08-30 06:00:00 14.8 0 Calma 8 Sudeste 0 1010.4 -1.4 91
2018-08-30 05:00:00 14.4 5 Sur 9 Sur 0 1010.7 -1.5 93
2018-08-30 04:00:00 15 0 Calma 2 Oeste 0 1011.1 -1.2 89
2018-08-30 03:00:00 15.1 0 Calma -- -- -- 1011.8 -0.6 89
2018-08-30 02:00:00 15.7 5 Noroeste 11 Norte 0 1012.2 -0.2 87
2018-08-30 01:00:00 16.7 9 Norte 22 Norte 0 1012.3 0.1 83
2018-08-30 00:00:00 16.7 12 Norte 21 Norte 0 1012.4 0.8 85
2018-08-29 23:00:00 17 9 Norte 21 Norte 0 1012.4 1.1 82
2018-08-29 22:00:00 17 9 Norte 22 Norte 0 1012.2 1 81
2018-08-29 21:00:00 17.9 13 Norte 30 Norte 0 1011.6 0.3 71
2018-08-29 20:00:00 18.4 15 Norte 28 Norte 0 1011.3 0.1 71
2018-08-29 19:00:00 19.4 16 Norte 30 Norte 0 1011.2 0 68
2018-08-29 18:00:00 19.2 22 Norte 33 Norte 0 1011.3 0.2 70
2018-08-29 17:00:00 19.6 15 Norte 26 Norte 0 1011.2 0.1 71
2018-08-29 16:00:00 20.3 15 Norte 28 Norte 0 1011.2 0.2 69
2018-08-29 15:00:00 20.3 15 Nordeste 24 Norte 0 1011.1 0.4 73
2018-08-29 14:00:00 19.3 14 Norte 24 Norte 0 1011.1 0.9 77
2018-08-29 13:00:00 18.7 9 Noroeste 18 Noroeste 0 1011 1.1 83
2018-08-29 12:00:00 18.5 0 Calma 26 Sur 0 1010.7 1 82
2018-08-29 11:00:00 17.4 3 Sur 11 Sudeste 0 1010.2 0.8 87
2018-08-29 10:00:00 16 10 Sur 28 Sudeste 0 1009.9 0.9 91
2018-08-29 09:00:00 14.9 9 Sur 15 Sur 0 1009.7 0.8 93
2018-08-29 08:00:00 14.5 11 Sur 13 Sur 0 1009.4 0.9 95
2018-08-29 07:00:00 14.9 10 Sur 18 Sur 0 1009 0.4 92
2018-08-29 06:00:00 15 3 Oeste 11 Sudoeste 0 1008.9 0.5 89
2018-08-29 05:00:00 15.6 10 Sudoeste 15 Oeste 0 1008.5 0.4 86
2018-08-29 04:00:00 16.4 13 Oeste 22 Noroeste 0 1008.6 0.9 88
2018-08-29 03:00:00 16.8 4 Oeste -- -- -- 1008.4 0.9 88
2018-08-29 02:00:00 16.7 8 Noroeste 21 Norte 0 1008.1 0.9 92
2018-08-29 01:00:00 16.8 9 Noroeste 18 Noroeste 0 1007.7 1.4 94
2018-08-29 00:00:00 17.1 10 Noroeste 17 Oeste 0.2 1007.5 2.3 94
2018-08-28 23:00:00 17.1 12 Noroeste 35 Noroeste 0.2 1007.2 2.7 95
2018-08-28 22:00:00 17.3 18 Noroeste 39 Noroeste 0.4 1006.3 2.6 96
2018-08-28 21:00:00 17.5 16 Noroeste 33 Noroeste 0.7 1005.2 2.1 96
2018-08-28 20:00:00 18.2 21 Oeste 33 Noroeste 0.1 1004.5 1.6 96
2018-08-28 19:00:00 20 13 Oeste 26 Norte 0 1003.7 1.1 88
2018-08-28 18:00:00 19.3 5 Norte 18 Nordeste 0 1003.1 1 85
2018-08-28 17:00:00 22.3 6 Nordeste 21 Nordeste 0 1002.9 1.4 73
2018-08-28 16:00:00 23.9 10 Noroeste 26 Noroeste 0 1002.6 1.1 65
2018-08-28 15:00:00 24.8 17 Noroeste 33 Sur 0 1002.1 1.1 61
2018-08-28 14:00:00 28 20 Sur 32 Sudoeste 0 1001.5 0.9 52
2018-08-28 13:00:00 27.2 14 Sudoeste 24 Sur 0 1001.5 1.4 50
2018-08-28 12:00:00 24.8 11 Sudeste 15 Sur 0 1001 0.9 61
2018-08-28 11:00:00 21.8 5 Este 9 Este 0 1000.6 0.4 69
2018-08-28 10:00:00 20.5 5 Sudeste 11 Noroeste 0 1000.1 1.4 75
2018-08-28 09:00:00 20 7 Oeste 18 Sur 0 1000.1 1 72
2018-08-28 08:00:00 21.6 20 Sur 35 Sur 0.5 1000.2 0.7 60
2018-08-28 07:00:00 20.6 8 Sudeste 32 Sudeste 0 998.7 -2.3 69
2018-08-28 06:00:00 20.8 17 Este 33 Sur 0.6 999.1 -2.2 70
2018-08-28 05:00:00 20.3 22 Sudeste 32 Sudeste 0.6 999.5 -1.9 78
2018-08-28 04:00:00 19.2 6 Este 21 Este 0 1001 -0.2 88
2018-08-28 03:00:00 19.1 7 Sur -- -- -- 1001.3 -0.2 88
2018-08-28 02:00:00 19 4 Sur 15 Sur 0 1001.4 0.4 88
2018-08-28 01:00:00 19.5 4 Norte 9 Norte 0 1001.2 -0.1 82
2018-08-28 00:00:00 19.8 4 Noroeste 8 Noroeste 0 1001.5 0.2 84
2018-08-27 23:00:00 20.5 4 Noroeste 9 Noroeste 0 1001 0.3 82
2018-08-27 22:00:00 21.6 6 Noroeste 15 Norte 0 1001.3 -0.1 78
2018-08-27 21:00:00 22.8 8 Oeste 18 Norte 0 1001.3 -0.9 75
2018-08-27 20:00:00 23.2 11 Norte 22 Norte 0 1000.7 -1.8 73
2018-08-27 19:00:00 23.8 9 Norte 15 Norte 0 1001.4 -1.4 72
2018-08-27 18:00:00 24.2 10 Norte 21 Norte 0 1002.2 -1.4 72
2018-08-27 17:00:00 24.8 13 Norte 26 Norte 0 1002.5 -1.7 69
2018-08-27 16:00:00 23.2 15 Norte 30 Norte 0 1002.8 -1.6 75
2018-08-27 15:00:00 23.1 16 Norte 28 Norte 0 1003.6 -0.9 75
2018-08-27 14:00:00 22.1 15 Norte 24 Norte 0 1004.2 -0.3 80
2018-08-27 13:00:00 22.2 12 Norte 18 Norte 0 1004.4 0 81
2018-08-27 12:00:00 20.3 8 Norte 13 Norte 0 1004.5 0.3 88
2018-08-27 11:00:00 18.8 8 Norte 15 Norte 0 1004.5 0.6 94
2018-08-27 10:00:00 18.3 9 Norte 17 Norte 0 1004.4 0.7 95
2018-08-27 09:00:00 19.2 4 Norte 8 Norte 0 1004.2 0.4 90
2018-08-27 08:00:00 18.5 0 Calma 9 Sudeste 0 1003.9 -0.1 94
2018-08-27 07:00:00 18.4 0 Calma 8 Sudeste 0 1003.7 -0.6 94
2018-08-27 06:00:00 18.2 0 Calma 8 Sudeste 0 1003.8 -0.8 95
2018-08-27 05:00:00 18.1 4 Sudeste 9 Sur 0 1004 -0.8 96
2018-08-27 04:00:00 18 8 Sur 11 Sur 0 1004.3 -0.7 96
2018-08-27 03:00:00 18.1 7 Sur -- -- -- 1004.6 -0.5 93
2018-08-27 02:00:00 18.5 4 Sudeste 8 Sudeste 0 1004.8 -0.4 89
2018-08-27 01:00:00 18.8 3 Sudeste 5 Sudeste 0 1005 0 85
2018-08-27 00:00:00 19 0 Calma 11 Este 0 1005.1 0.3 84
2018-08-26 23:00:00 19 3 Nordeste 5 Nordeste 0 1005.2 0.8 82
2018-08-26 22:00:00 18.9 6 Nordeste 13 Nordeste 0 1005 0.6 82
2018-08-26 21:00:00 19.6 9 Norte 21 Norte 0 1004.8 0.4 78
2018-08-26 20:00:00 20.9 13 Norte 22 Norte 0 1004.4 -0.5 65
2018-08-26 19:00:00 22 10 Norte 21 Norte 0 1004.4 -0.7 57
2018-08-26 18:00:00 22 15 Nordeste 22 Nordeste 0 1004.4 -0.7 55
2018-08-26 17:00:00 22.3 13 Nordeste 24 Norte 0 1004.9 -0.2 53
2018-08-26 16:00:00 21.6 13 Norte 28 Norte 0 1005.1 0.3 59
2018-08-26 15:00:00 20.9 14 Norte 28 Norte 0 1005.1 -0.3 63
2018-08-26 14:00:00 21.6 14 Norte 26 Nordeste 0 1005.1 -0.5 62
2018-08-26 13:00:00 22.5 3 Norte 13 Norte 0 1004.8 -1 48
2018-08-26 12:00:00 21.4 4 Sudeste 11 Sur 0 1005.4 -0.2 54
2018-08-26 11:00:00 18.2 6 Sur 11 Sur 0 1005.6 0.1 76
2018-08-26 10:00:00 14.8 8 Sur 13 Sudeste 0 1005.8 0.5 89
2018-08-26 09:00:00 12.6 2 Sur 13 Sur 0 1005.6 0.2 97
2018-08-26 08:00:00 11.8 6 Sur 9 Sur 0 1005.5 0 98
2018-08-26 07:00:00 12.3 7 Sur 9 Sur 0 1005.3 -0.6 98
2018-08-26 06:00:00 12.8 8 Sur 11 Sur 0 1005.4 -0.9 96
2018-08-26 05:00:00 13.3 4 Sudoeste 11 Sur 0 1005.5 -1.5 95
2018-08-26 04:00:00 14 9 Sur 11 Sur 0 1005.9 -1.5 94
2018-08-26 03:00:00 15.4 4 Norte -- -- -- 1006.3 -1.4 88
2018-08-26 02:00:00 15.9 5 Noroeste 11 Norte 0 1007 -0.9 87
2018-08-26 01:00:00 16.4 5 Norte 13 Norte 0 1007.4 -0.1 85
2018-08-26 00:00:00 16.9 7 Norte 13 Norte 0 1007.7 0.5 83
2018-08-25 23:00:00 17.2 7 Norte 13 Norte 0 1007.9 0.7 81
2018-08-25 22:00:00 17.6 9 Norte 24 Norte 0 1007.5 0.1 78
2018-08-25 21:00:00 18.1 14 Norte 32 Norte 0 1007.2 -0.4 80
2018-08-25 20:00:00 19 17 Norte 32 Norte 0 1007.2 -0.8 73
2018-08-25 19:00:00 19.9 14 Norte 30 Norte 0 1007.4 -1.1 71
2018-08-25 18:00:00 19.9 18 Norte 32 Norte 0 1007.6 -1.3 70
2018-08-25 17:00:00 20.4 19 Norte 33 Norte 0 1008 -1.3 66
2018-08-25 16:00:00 20.8 16 Norte 28 Norte 0 1008.5 -1.2 61
2018-08-25 15:00:00 20.9 15 Norte 28 Norte 0 1008.9 -1.2 55
2018-08-25 14:00:00 20.1 16 Norte 24 Norte 0 1009.3 -0.7 62
2018-08-25 13:00:00 19.8 12 Norte 22 Norte 0 1009.7 -0.2 63
2018-08-25 12:00:00 19.2 12 Norte 21 Norte 0 1010.1 0.4 65
2018-08-25 11:00:00 18.5 2 Sudoeste 11 Sudeste 0 1010 0.6 68
2018-08-25 10:00:00 15.2 7 Sur 11 Sur 0 1009.9 0.6 85
2018-08-25 09:00:00 13.3 7 Sur 11 Sur 0 1009.7 0.3 93
2018-08-25 08:00:00 11.9 8 Sur 11 Sur 0 1009.4 -0.3 95
2018-08-25 07:00:00 12.5 3 Sudoeste 8 Sur 0 1009.3 -0.8 92
2018-08-25 06:00:00 13.3 2 Sudoeste 5 Noroeste 0 1009.4 -0.8 91
2018-08-25 05:00:00 13.5 3 Oeste 5 Oeste 0 1009.7 -1.1 88
2018-08-25 04:00:00 14.2 0 Calma 9 Nordeste 0 1010.1 -0.9 88
2018-08-25 03:00:00 14.8 4 Noroeste -- -- -- 1010.2 -0.7 86
2018-08-25 02:00:00 16.2 6 Norte 15 Norte 0 1010.8 -0.2 79
2018-08-25 01:00:00 16.9 9 Norte 17 Norte 0 1011 0.5 77
2018-08-25 00:00:00 16.8 9 Norte 18 Norte 0 1010.9 0.9 78